Etusivu
METAR-TAF:

METAR-TAF

Lentoasemat :

Winona Municipal Airport (Max Conrad Field)

Winona, Minnesota, Yhdysvallat

Leveyspiiri: 44-05N, Pituuspiiri: 091-42W, korkeus merenpinnasta: 200 m

Tämänhetkinen sää

Tämä raportti tehtiin 6 minuuttia sitten, kello 07.55 UTC
Tuuli 4 kn lännestä/luoteesta
Lämpötila 10°C
Kosteus 87%
Ilmanpaine 1011 hPa
Näkyvyys: 16.1 km
Hajonneita pilviä 1800 ft:n korkeudessa
Hajonneita pilviä 2400 ft:n korkeudessa
Pilvistä 4500 ft:n korkeudessa

METAR: KONA 290755Z AUTO 30004KT 10SM BKN018 BKN024 OVC045 10/08 A2986 RMK AO2

Aika: 03:01 (08:01 UTC)


TAF: puuttuu

Säähavainnot ja -ennusteet yli 4000 lentoasemalta (METAR- ja TAF-raportit).

Käytössä olevat sääasemat on merkitty karttaan keltaisilla ja punaisilla pisteillä.

Aseta hiiri pisteen päälle nähdäksesi sääaseman nimen.

Klikkaa sitten nähdäksesi säähavainnot ja -ennusteet.

Kartan vaihtaminen: klikkaa mustalla rastilla varustettuja vihreitä pisteitä, niin voit zoomata sisään; viivalla varustettua vihreää pistettä, niin voit zoomata ulos tai vihreitä nuolia, niin pääset viereisille kartoille.


METAR-TAF: